createdAt,value
2023-05-20T00:02:16.380Z,15.50
2023-05-20T00:07:19.261Z,15.30
2023-05-20T00:12:22.044Z,15.60
2023-05-20T00:17:26.678Z,13.20
2023-05-20T00:22:29.656Z,12.80
2023-05-20T00:27:32.516Z,12.50
2023-05-20T00:32:35.436Z,12.00
2023-05-20T00:37:38.718Z,13.10
2023-05-20T00:42:41.573Z,12.80
2023-05-20T00:47:44.377Z,14.40
2023-05-20T00:52:48.372Z,13.20
2023-05-20T00:57:52.224Z,12.10
2023-05-20T01:02:55.566Z,11.90
2023-05-20T01:07:58.838Z,13.20
2023-05-20T01:13:03.662Z,13.90
2023-05-20T01:18:07.657Z,11.40
2023-05-20T01:23:10.677Z,10.00
2023-05-20T01:28:17.956Z,10.60
2023-05-20T01:33:21.914Z,9.90
2023-05-20T01:38:24.834Z,12.40
2023-05-20T01:43:27.642Z,12.60
2023-05-20T01:48:30.548Z,11.00
2023-05-20T01:53:33.666Z,11.70
2023-05-20T01:58:36.620Z,9.60
2023-05-20T02:03:39.510Z,10.70
2023-05-20T02:08:42.289Z,8.30
2023-05-20T02:13:45.118Z,14.60
2023-05-20T02:18:47.990Z,9.80
2023-05-20T02:23:51.047Z,10.80
2023-05-20T02:28:53.894Z,10.40
2023-05-20T02:33:56.857Z,8.30
2023-05-20T02:39:01.334Z,12.20
2023-05-20T02:44:04.390Z,9.00
2023-05-20T02:49:07.270Z,7.80
2023-05-20T02:54:10.518Z,9.30
2023-05-20T02:59:13.420Z,9.60
2023-05-20T03:04:19.283Z,9.90
2023-05-20T03:09:22.265Z,7.60
2023-05-20T03:14:25.122Z,10.30
2023-05-20T03:19:28.136Z,9.10
2023-05-20T03:24:31.051Z,11.40
2023-05-20T03:29:33.958Z,8.80
2023-05-20T03:34:36.802Z,8.30
2023-05-20T03:39:39.739Z,8.60
2023-05-20T03:44:42.585Z,8.50
2023-05-20T03:49:46.156Z,9.00
2023-05-20T03:54:48.949Z,10.50
2023-05-20T03:59:51.888Z,8.30
2023-05-20T04:04:57.841Z,6.10
2023-05-20T04:10:00.916Z,6.90
2023-05-20T04:15:03.993Z,9.20
2023-05-20T04:20:07.738Z,9.50
2023-05-20T04:25:10.643Z,7.30
2023-05-20T04:30:14.004Z,8.40
2023-05-20T04:35:17.057Z,8.50
2023-05-20T04:40:21.047Z,8.00
2023-05-20T04:45:24.038Z,7.00
2023-05-20T04:50:27.385Z,7.40
2023-05-20T04:55:30.942Z,7.80
2023-05-20T05:00:34.494Z,8.90
2023-05-20T05:05:38.936Z,6.00
2023-05-20T05:10:41.810Z,6.80
2023-05-20T05:15:44.605Z,6.60
2023-05-20T05:20:47.411Z,7.40
2023-05-20T05:25:53.915Z,6.90
2023-05-20T05:30:56.922Z,7.10
2023-05-20T05:36:01.272Z,6.90
2023-05-20T05:41:04.188Z,5.80
2023-05-20T05:46:07.164Z,4.60
2023-05-20T05:51:10.407Z,5.80
2023-05-20T05:56:13.140Z,5.00
2023-05-20T06:01:16.086Z,7.10
2023-05-20T06:06:18.920Z,5.00
2023-05-20T06:11:23.020Z,6.60
2023-05-20T06:16:25.920Z,3.70
2023-05-20T06:21:28.919Z,6.30
2023-05-20T06:26:31.712Z,4.90
2023-05-20T06:31:34.623Z,5.60
2023-05-20T06:36:37.519Z,4.70
2023-05-20T06:41:40.342Z,5.10
2023-05-20T06:46:43.263Z,5.10
2023-05-20T06:51:46.161Z,5.70
2023-05-20T06:56:49.065Z,6.30
2023-05-20T07:01:52.195Z,6.30
2023-05-20T07:06:55.389Z,5.50
2023-05-20T07:11:58.149Z,6.10
2023-05-20T07:17:02.345Z,4.60
2023-05-20T07:22:05.293Z,5.80
2023-05-20T07:27:08.568Z,5.90
2023-05-20T07:32:11.516Z,5.70
2023-05-20T07:37:14.888Z,4.80
2023-05-20T07:42:17.946Z,4.80
2023-05-20T07:47:21.176Z,7.00
2023-05-20T07:52:25.450Z,5.40
2023-05-20T07:57:28.329Z,5.30
2023-05-20T08:02:31.356Z,6.10
2023-05-20T08:07:34.721Z,5.00
2023-05-20T08:12:37.746Z,6.10
2023-05-20T08:17:40.789Z,7.40
2023-05-20T08:22:43.721Z,5.80
2023-05-20T08:27:46.546Z,4.10
2023-05-20T08:32:49.490Z,5.70
2023-05-20T08:37:54.135Z,4.00
2023-05-20T08:42:59.164Z,6.10
2023-05-20T08:48:02.152Z,7.30
2023-05-20T08:53:05.121Z,8.00
2023-05-20T08:58:08.057Z,5.20
2023-05-20T09:03:11.515Z,6.50
2023-05-20T09:08:14.432Z,4.20
2023-05-20T09:13:17.226Z,7.70
2023-05-20T09:18:20.127Z,7.40
2023-05-20T09:23:22.950Z,5.90
2023-05-20T09:28:25.824Z,7.00
2023-05-20T09:33:30.162Z,4.90
2023-05-20T09:38:38.080Z,9.70
2023-05-20T09:43:41.660Z,7.10
2023-05-20T09:48:44.429Z,6.80
2023-05-20T09:53:47.386Z,5.00
2023-05-20T09:58:51.149Z,9.50
2023-05-20T10:03:53.980Z,6.30
2023-05-20T10:09:32.863Z,5.80
2023-05-20T10:14:53.023Z,5.90
2023-05-20T10:19:59.734Z,5.40
2023-05-20T10:25:07.377Z,6.70
2023-05-20T10:30:17.473Z,6.90
2023-05-20T10:35:26.713Z,6.10
2023-05-20T10:40:29.624Z,4.60
2023-05-20T10:45:32.991Z,6.30
2023-05-20T10:50:37.189Z,4.60
2023-05-20T10:55:41.656Z,7.20
2023-05-20T11:00:44.641Z,6.40
2023-05-20T11:05:48.435Z,4.50
2023-05-20T11:11:00.922Z,4.70
2023-05-20T11:16:04.683Z,6.90
2023-05-20T11:21:08.082Z,7.40
2023-05-20T11:26:11.132Z,4.10
2023-05-20T11:31:13.922Z,7.40
2023-05-20T11:36:27.391Z,5.10
2023-05-20T11:41:31.076Z,4.20
2023-05-20T11:46:33.957Z,7.70
2023-05-20T11:51:37.924Z,6.60
2023-05-20T11:56:45.427Z,5.90
2023-05-20T12:01:48.255Z,4.30
2023-05-20T12:06:51.283Z,4.60
2023-05-20T12:11:56.671Z,3.70
2023-05-20T12:16:59.958Z,6.60
2023-05-20T12:22:02.838Z,5.70
2023-05-20T12:27:06.444Z,5.00
2023-05-20T12:32:09.358Z,5.20
2023-05-20T12:37:12.290Z,4.10
2023-05-20T12:42:15.327Z,5.80
2023-05-20T12:47:18.355Z,9.00
2023-05-20T12:52:22.771Z,4.40
2023-05-20T12:57:25.982Z,5.80
2023-05-20T13:02:29.075Z,5.00
2023-05-20T13:07:32.913Z,4.90
2023-05-20T13:17:39.525Z,5.50
2023-05-20T13:22:42.514Z,5.90
2023-05-20T13:27:45.261Z,5.90
2023-05-20T13:32:48.192Z,5.00
2023-05-20T13:37:51.239Z,5.40
2023-05-20T13:42:54.356Z,4.50
2023-05-20T13:47:57.498Z,9.40
2023-05-20T13:53:00.383Z,7.40
2023-05-20T13:58:03.740Z,5.50
2023-05-20T14:08:12.711Z,6.10
2023-05-20T14:13:15.570Z,5.80
2023-05-20T14:18:19.017Z,5.90
2023-05-20T14:23:21.876Z,6.70
2023-05-20T14:28:24.762Z,4.30
2023-05-20T14:33:27.757Z,5.40
2023-05-20T14:38:30.966Z,5.00
2023-05-20T14:43:34.464Z,3.60
2023-05-20T14:48:37.390Z,5.50
2023-05-20T14:53:40.247Z,7.00
2023-05-20T14:58:43.062Z,4.60
2023-05-20T15:03:45.969Z,4.60
2023-05-20T15:08:48.868Z,5.90
2023-05-20T15:13:51.689Z,4.40
2023-05-20T15:18:54.930Z,4.30
2023-05-20T15:23:57.849Z,6.60
2023-05-20T15:29:00.833Z,5.10
2023-05-20T15:34:03.707Z,5.20
2023-05-20T15:39:06.534Z,8.20
2023-05-20T15:44:09.483Z,5.80
2023-05-20T15:49:12.734Z,5.30
2023-05-20T15:54:15.575Z,3.80
2023-05-20T15:59:18.415Z,8.40
2023-05-20T16:04:21.805Z,5.10
2023-05-20T16:09:24.767Z,6.30
2023-05-20T16:14:27.616Z,7.90
2023-05-20T16:19:30.605Z,7.00
2023-05-20T16:24:33.721Z,8.20
2023-05-20T16:29:37.393Z,6.20
2023-05-20T16:34:40.147Z,6.50
2023-05-20T16:39:42.898Z,4.80
2023-05-20T16:44:46.778Z,6.50
2023-05-20T16:49:49.648Z,8.70
2023-05-20T16:54:52.557Z,7.20
2023-05-20T16:59:55.989Z,5.40
2023-05-20T17:04:58.853Z,5.50
2023-05-20T17:10:01.793Z,5.00
2023-05-20T17:15:06.223Z,4.90
2023-05-20T17:20:09.668Z,4.50
2023-05-20T17:25:12.745Z,7.60
2023-05-20T17:30:15.669Z,7.40
2023-05-20T17:35:20.406Z,5.10
2023-05-20T17:40:23.279Z,4.50
2023-05-20T17:45:26.346Z,7.00
2023-05-20T17:50:29.211Z,5.50
2023-05-20T17:55:32.932Z,5.00
2023-05-20T18:00:42.111Z,5.30
2023-05-20T18:05:45.128Z,6.10
2023-05-20T18:10:47.934Z,4.40
2023-05-20T18:15:51.078Z,9.00
2023-05-20T18:20:53.859Z,6.40
2023-05-20T18:25:56.807Z,6.60
2023-05-20T18:30:59.682Z,6.30
2023-05-20T18:36:02.699Z,7.20
2023-05-20T18:41:05.523Z,8.50
2023-05-20T18:46:08.432Z,7.50
2023-05-20T18:51:11.330Z,6.50
2023-05-20T18:56:14.304Z,6.20
2023-05-20T19:01:17.189Z,7.40
2023-05-20T19:06:21.998Z,11.00
2023-05-20T19:11:24.988Z,8.00
2023-05-20T19:16:27.966Z,7.90
2023-05-20T19:21:32.702Z,6.10
2023-05-20T19:26:35.580Z,9.70
2023-05-20T19:31:41.435Z,8.20
2023-05-20T19:36:45.464Z,10.00
2023-05-20T19:41:48.786Z,7.60
2023-05-20T19:46:53.433Z,8.80
2023-05-20T19:51:56.277Z,8.10
2023-05-20T19:56:59.178Z,6.30
2023-05-20T20:02:03.070Z,8.90
2023-05-20T20:07:08.118Z,9.40
2023-05-20T20:12:10.932Z,7.20
2023-05-20T20:17:15.769Z,8.30
2023-05-20T20:22:18.645Z,13.40
2023-05-20T20:27:23.896Z,11.00
2023-05-20T20:32:27.451Z,10.70
2023-05-20T20:37:30.472Z,13.80
2023-05-20T20:42:33.492Z,10.60
2023-05-20T20:47:38.748Z,10.60
2023-05-20T20:52:42.924Z,11.10
2023-05-20T20:57:45.896Z,8.70
2023-05-20T21:02:48.817Z,10.00
2023-05-20T21:07:58.250Z,9.70
2023-05-20T21:13:01.409Z,10.10
2023-05-20T21:18:04.231Z,10.40
2023-05-20T21:23:07.303Z,9.70
2023-05-20T21:28:10.364Z,10.60
2023-05-20T21:33:13.363Z,9.10
2023-05-20T21:38:16.252Z,13.80
2023-05-20T21:43:19.106Z,9.10
2023-05-20T21:48:22.051Z,9.60
2023-05-20T21:53:24.899Z,8.90
2023-05-20T21:58:27.878Z,8.90
2023-05-20T22:03:32.956Z,8.60
2023-05-20T22:08:35.892Z,8.90
2023-05-20T22:13:43.302Z,9.10
2023-05-20T22:18:49.679Z,8.50
2023-05-20T22:23:52.708Z,8.40
2023-05-20T22:28:55.457Z,8.40
2023-05-20T22:33:58.458Z,7.70
2023-05-20T22:39:02.428Z,12.30
2023-05-20T22:44:05.502Z,10.50
2023-05-20T22:49:10.329Z,9.00
2023-05-20T22:54:13.140Z,8.50
2023-05-20T22:59:15.908Z,9.90
2023-05-20T23:04:18.953Z,7.40
2023-05-20T23:09:21.862Z,7.10
2023-05-20T23:14:24.712Z,8.50
2023-05-20T23:19:27.552Z,7.00
2023-05-20T23:24:30.908Z,7.20
2023-05-20T23:29:33.862Z,7.00
2023-05-20T23:34:36.654Z,9.20
2023-05-20T23:39:39.421Z,7.50
2023-05-20T23:44:42.245Z,9.60
2023-05-20T23:49:47.161Z,10.90
2023-05-20T23:54:52.338Z,7.40
2023-05-20T23:59:55.113Z,7.80
